Allen Jay, North Carolina
Current Conditions -  °F | °C
As of 1:54 AM on Sunday 21 Dec 2014 (Local Time) from KGSO Reporting Station
Haze Haze  
Wind Chill:   Ceiling: 2500
Heat Index:   Visibility: 6mi
Dew Point:   Wind: 0mph
Humidity: 89%   Direction: NA
Pressure: 30.25"   Gusts: NA
Location:  35.9136°N, 79.9465°W
Report Text: KGSO 210654Z 00000KT 6SM BR OVC025 03/02 A3025 RMK AO2 SLP247 T00330017
Loading
Personal Weather Stations






























Interactive Weather Map New forecast layout! Learn more

10-Day Weather Forecast

Advertisements
Track Severe Weather on mobile